Home > Products > Valid Products > TAF

000
FTUS42 KMHX 222300 RRA
TAFEWN
TAF
KEWN 222342Z 2300/2324 18004KT P6SM SCT015 SCT120 BKN200
     FM230700 20003KT 4SM BR SCT005
     FM231230 21006KT P6SM SCT025=



000
FTUS42 KMHX 221700 RRA
TAFEWN
TAF
KEWN 221749Z 2218/2318 16008KT P6SM VCTS SCT015 BKN035CB
     FM230000 18003KT P6SM SCT025 OVC120
     FM230700 20003KT 4SM BR SCT007
     FM231230 22006KT P6SM SCT025=



000
FTUS42 KMHX 221400 AAA
TAFEWN
TAF AMD
KEWN 221404Z 2214/2312 VRB03KT P6SM BKN006 BKN015
     FM221500 15005KT P6SM VCSH SCT010 BKN030
     FM221600 15008KT P6SM VCTS SCT015 BKN035CB
     FM230000 18003KT P6SM SCT025 OVC120
     FM230700 20003KT 4SM BR SCT007=



000
FTUS42 KMHX 221100
TAFEWN
TAF
KEWN 221123Z 2212/2312 VRB03KT P6SM BKN005
     FM221400 15005KT P6SM VCSH SCT010 BKN030
     FM221600 15008KT P6SM VCTS SCT015 BKN035CB
     FM230000 18003KT P6SM SCT025 OVC120
     FM230700 20003KT 4SM BR SCT007=



000
FTUS42 KMHX 220500 RRA
TAFEWN
TAF
KEWN 220548Z 2206/2306 VRB03KT P6SM SCT005 BKN025
      TEMPO 2207/2211 5SM BR BKN005
     FM221300 15005KT P6SM VCSH SCT015 BKN030
     FM221600 15008KT P6SM VCTS SCT015 BKN035CB
     FM230000 18003KT P6SM SCT025 OVC120=



000
FTUS42 KMHX 212300
TAFEWN
TAF
KEWN 212340Z 2200/2224 VRB03KT P6SM SCT008 BKN050
     FM220500 00000KT 4SM BR SCT005 BKN120
     FM221300 15005KT P6SM VCSH SCT015 BKN030=



000
FTUS42 KMHX 211700 RRA
TAFEWN
TAF
KEWN 211745Z 2118/2218 12006KT 4SM -RA SCT015 BKN025
     FM212200 12006KT P6SM VCSH SCT025 BKN050
     FM220000 10003KT P6SM SCT025 BKN080
     FM220600 VRB02KT 3SM BR SCT007 BKN150
     FM221200 08006KT P6SM SCT015 BKN035=



000
FTUS42 KMHX 211100 RRA
TAFEWN
TAF
KEWN 211142Z 2112/2212 08005KT P6SM VCSH SCT020 BKN100
     FM211600 09006KT P6SM VCTS SCT030CB BKN100
     FM220000 10003KT P6SM SCT025 BKN080
     FM220600 VRB02KT 3SM BR SCT007 BKN150=



000
FTUS42 KMHX 211000 AAC
TAFEWN
TAF AMD
KEWN 211006Z 2110/2206 00000KT P6SM BKN120
      TEMPO 2110/2112 4SM BR SCT003
     FM211300 08005KT P6SM SCT020 BKN100
     FM211600 09006KT P6SM VCTS SCT030CB BKN100
     FM220000 10003KT P6SM SCT025 BKN040=



000
FTUS42 KMHX 210800 AAB
TAFEWN
TAF AMD
KEWN 210827Z 2108/2206 00000KT 5SM BR SCT003 BKN120
      TEMPO 2108/2112 1/2SM FG VV003
     FM211300 08005KT P6SM SCT020 BKN100
     FM211600 09006KT P6SM VCTS SCT030CB BKN100
     FM220000 10003KT P6SM SCT025 BKN040=



000
FTUS42 KMHX 210700 AAA
TAFEWN
TAF AMD
KEWN 210737Z 2108/2206 00000KT 2SM BR SCT003 BKN120
      TEMPO 2108/2112 1/2SM FG VV003
     FM211300 08005KT P6SM SCT020 BKN100
     FM211600 09006KT P6SM VCTS SCT030CB BKN100
     FM220000 10003KT P6SM SCT025 BKN040=



000
FTUS42 KMHX 210500 RRA
TAFEWN
TAF
KEWN 210543Z 2106/2206 VRB03KT 4SM BR BKN120
     FM210900 00000KT 2SM BR SCT007 BKN120
     FM211300 08005KT P6SM SCT020 BKN100
     FM211600 09006KT P6SM VCTS SCT030CB BKN100
     FM220000 10003KT P6SM SCT025 BKN040=



000
FTUS42 KMHX 210000 AAA
TAFEWN
TAF AMD
KEWN 210024Z 2100/2124 00000KT P6SM SCT020 BKN120
      TEMPO 2100/2104 BKN020
     FM210600 00000KT 2SM BR SCT010 SCT120
     FM211200 08005KT P6SM SCT020 SCT120
     FM211700 09006KT P6SM VCTS SCT030CB BKN100=



000
FTUS42 KMHX 202300
TAFEWN
TAF
KEWN 202335Z 2100/2124 00000KT P6SM SCT030 BKN120
     FM210600 00000KT 2SM BR SCT010 SCT120
     FM211200 08005KT P6SM SCT020 SCT120
     FM211700 09006KT P6SM VCTS SCT030CB BKN100=



000
FTUS42 KMHX 202100 AAB
TAFEWN
TAF AMD
KEWN 202150Z 2022/2118 VRB03KT P6SM VCSH SCT030 BKN050
     FM210000 00000KT P6SM SCT030 BKN140
     FM210600 00000KT 4SM BR SCT140
     FM211300 10005KT P6SM SCT030=



000
FTUS42 KMHX 201900 AAA
TAFEWN
TAF AMD
KEWN 201952Z 2020/2118 05005KT P6SM VCTS BKN030CB
      TEMPO 2020/2021 VRB05G20KT 2SM TSRA BKN020CB
     FM210000 12003KT P6SM SCT030
     FM210800 10003KT 4SM BR SKC
     FM211300 10005KT P6SM SCT030=



000
FTUS42 KMHX 201700
TAFEWN
TAF
KEWN 201720Z 2018/2118 03004KT P6SM SCT100
     FM202000 15005KT P6SM VCTS BKN030CB
     FM210100 12003KT P6SM SCT030
     FM210800 10003KT 4SM BR SKC
     FM211300 10005KT P6SM SCT030=



000
FTUS42 KMHX 201100 RRA
TAFEWN
TAF
KEWN 201141Z 2012/2112 00000KT 5SM BR FEW008
     FM201300 VRB03KT P6SM SCT040
     FM201700 14006KT P6SM VCSH SCT050 BKN120
     FM210900 00000KT 3SM BR SCT007=



000
FTUS42 KMHX 200500 RRA
TAFEWN
TAF
KEWN 200541Z 2006/2106 00000KT P6SM VCSH SCT020 BKN100
     FM200800 00000KT 4SM BR SCT008 OVC025
     FM201000 00000KT 2SM BR OVC004
     FM201300 34005KT 5SM BR BKN015
     FM201500 VRB03KT P6SM VCSH SCT035 BKN120=



    US Dept of Commerce
    National Oceanic and Atmospheric Administration
    National Weather Service
    1325 East West Highway
    Silver Spring, MD 20910
    Page Author: NWS Internet Services Team
Disclaimer
Information Quality
Credits
Glossary
Privacy Policy
Freedom of Information Act (FOIA)
About Us
Career Opportunities